sensor_id;sensor_type;location;lat;lon;timestamp;P1;P2;P0
64627;PMS5003;59036;50.960;0.314;2022-11-20T00:01:23;5;4;
64627;PMS5003;59036;50.960;0.314;2022-11-20T00:03:53;4;4;
64627;PMS5003;59036;50.960;0.314;2022-11-20T00:06:23;4;3;
64627;PMS5003;59036;50.960;0.314;2022-11-20T00:08:53;3;2;
64627;PMS5003;59036;50.960;0.314;2022-11-20T00:11:22;5;4;
64627;PMS5003;59036;50.960;0.314;2022-11-20T00:13:52;4;3;
64627;PMS5003;59036;50.960;0.314;2022-11-20T00:16:21;3;3;
64627;PMS5003;59036;50.960;0.314;2022-11-20T00:18:49;3;3;
64627;PMS5003;59036;50.960;0.314;2022-11-20T00:21:18;3;3;
64627;PMS5003;59036;50.960;0.314;2022-11-20T00:23:47;5;4;
64627;PMS5003;59036;50.960;0.314;2022-11-20T00:26:17;4;2;
64627;PMS5003;59036;50.960;0.314;2022-11-20T00:28:48;2;2;
64627;PMS5003;59036;50.960;0.314;2022-11-20T00:31:16;2;2;
64627;PMS5003;59036;50.960;0.314;2022-11-20T00:33:44;3;3;
64627;PMS5003;59036;50.960;0.314;2022-11-20T00:36:13;2;2;
64627;PMS5003;59036;50.960;0.314;2022-11-20T00:38:41;3;3;
64627;PMS5003;59036;50.960;0.314;2022-11-20T00:41:10;5;3;
64627;PMS5003;59036;50.960;0.314;2022-11-20T00:43:39;7;6;
64627;PMS5003;59036;50.960;0.314;2022-11-20T00:46:07;3;3;
64627;PMS5003;59036;50.960;0.314;2022-11-20T00:48:40;6;5;
64627;PMS5003;59036;50.960;0.314;2022-11-20T00:51:07;6;6;
64627;PMS5003;59036;50.960;0.314;2022-11-20T00:53:35;3;3;
64627;PMS5003;59036;50.960;0.314;2022-11-20T00:56:04;7;7;
64627;PMS5003;59036;50.960;0.314;2022-11-20T00:58:34;9;8;
64627;PMS5003;59036;50.960;0.314;2022-11-20T01:01:04;6;6;
64627;PMS5003;59036;50.960;0.314;2022-11-20T01:03:33;10;9;
64627;PMS5003;59036;50.960;0.314;2022-11-20T01:06:03;9;9;
64627;PMS5003;59036;50.960;0.314;2022-11-20T01:08:32;8;7;
64627;PMS5003;59036;50.960;0.314;2022-11-20T01:11:02;9;9;
64627;PMS5003;59036;50.960;0.314;2022-11-20T01:13:32;8;7;
64627;PMS5003;59036;50.960;0.314;2022-11-20T01:16:01;8;8;
64627;PMS5003;59036;50.960;0.314;2022-11-20T01:18:29;8;8;
64627;PMS5003;59036;50.960;0.314;2022-11-20T01:20:59;5;4;
64627;PMS5003;59036;50.960;0.314;2022-11-20T01:23:30;4;4;
64627;PMS5003;59036;50.960;0.314;2022-11-20T01:25:59;6;6;
64627;PMS5003;59036;50.960;0.314;2022-11-20T01:28:28;7;6;
64627;PMS5003;59036;50.960;0.314;2022-11-20T01:30:56;6;6;
64627;PMS5003;59036;50.960;0.314;2022-11-20T01:33:24;6;5;
64627;PMS5003;59036;50.960;0.314;2022-11-20T01:35:51;4;3;
64627;PMS5003;59036;50.960;0.314;2022-11-20T01:38:19;3;3;
64627;PMS5003;59036;50.960;0.314;2022-11-20T01:40:53;5;4;
64627;PMS5003;59036;50.960;0.314;2022-11-20T01:43:20;3;2;
64627;PMS5003;59036;50.960;0.314;2022-11-20T01:45:53;5;5;
64627;PMS5003;59036;50.960;0.314;2022-11-20T01:48:26;3;2;
64627;PMS5003;59036;50.960;0.314;2022-11-20T01:50:59;3;3;
64627;PMS5003;59036;50.960;0.314;2022-11-20T01:53:30;3;3;
64627;PMS5003;59036;50.960;0.314;2022-11-20T01:56:02;3;3;
64627;PMS5003;59036;50.960;0.314;2022-11-20T01:58:35;4;4;
64627;PMS5003;59036;50.960;0.314;2022-11-20T02:01:06;2;2;
64627;PMS5003;59036;50.960;0.314;2022-11-20T02:03:33;3;3;
64627;PMS5003;59036;50.960;0.314;2022-11-20T02:06:03;2;2;
64627;PMS5003;59036;50.960;0.314;2022-11-20T02:08:36;3;3;
64627;PMS5003;59036;50.960;0.314;2022-11-20T02:11:04;2;2;
64627;PMS5003;59036;50.960;0.314;2022-11-20T02:13:33;3;3;
64627;PMS5003;59036;50.960;0.314;2022-11-20T02:16:01;5;5;
64627;PMS5003;59036;50.960;0.314;2022-11-20T02:18:30;5;3;
64627;PMS5003;59036;50.960;0.314;2022-11-20T02:20:59;3;3;
64627;PMS5003;59036;50.960;0.314;2022-11-20T02:23:34;5;4;
64627;PMS5003;59036;50.960;0.314;2022-11-20T02:26:06;4;4;
64627;PMS5003;59036;50.960;0.314;2022-11-20T02:28:37;3;2;
64627;PMS5003;59036;50.960;0.314;2022-11-20T02:31:04;3;3;
64627;PMS5003;59036;50.960;0.314;2022-11-20T02:33:31;3;3;
64627;PMS5003;59036;50.960;0.314;2022-11-20T02:35:59;4;4;
64627;PMS5003;59036;50.960;0.314;2022-11-20T02:38:26;2;2;
64627;PMS5003;59036;50.960;0.314;2022-11-20T02:40:53;3;3;
64627;PMS5003;59036;50.960;0.314;2022-11-20T02:43:20;4;3;
64627;PMS5003;59036;50.960;0.314;2022-11-20T02:45:47;3;3;
64627;PMS5003;59036;50.960;0.314;2022-11-20T02:48:14;4;3;
64627;PMS5003;59036;50.960;0.314;2022-11-20T02:50:41;3;3;
64627;PMS5003;59036;50.960;0.314;2022-11-20T02:53:09;3;3;
64627;PMS5003;59036;50.960;0.314;2022-11-20T02:55:36;4;3;
64627;PMS5003;59036;50.960;0.314;2022-11-20T02:58:03;5;3;
64627;PMS5003;59036;50.960;0.314;2022-11-20T03:00:30;3;3;
64627;PMS5003;59036;50.960;0.314;2022-11-20T03:02:57;3;3;
64627;PMS5003;59036;50.960;0.314;2022-11-20T03:05:24;3;3;
64627;PMS5003;59036;50.960;0.314;2022-11-20T03:07:52;3;3;
64627;PMS5003;59036;50.960;0.314;2022-11-20T03:10:19;4;4;
64627;PMS5003;59036;50.960;0.314;2022-11-20T03:12:46;6;5;
64627;PMS5003;59036;50.960;0.314;2022-11-20T03:15:13;3;3;
64627;PMS5003;59036;50.960;0.314;2022-11-20T03:17:40;5;5;
64627;PMS5003;59036;50.960;0.314;2022-11-20T03:20:08;4;4;
64627;PMS5003;59036;50.960;0.314;2022-11-20T03:22:35;4;4;
64627;PMS5003;59036;50.960;0.314;2022-11-20T03:25:03;5;4;
64627;PMS5003;59036;50.960;0.314;2022-11-20T03:27:31;7;4;
64627;PMS5003;59036;50.960;0.314;2022-11-20T03:29:59;6;4;
64627;PMS5003;59036;50.960;0.314;2022-11-20T03:32:26;6;5;
64627;PMS5003;59036;50.960;0.314;2022-11-20T03:34:53;6;6;
64627;PMS5003;59036;50.960;0.314;2022-11-20T03:37:20;6;6;
64627;PMS5003;59036;50.960;0.314;2022-11-20T03:39:47;8;7;
64627;PMS5003;59036;50.960;0.314;2022-11-20T03:42:15;5;5;
64627;PMS5003;59036;50.960;0.314;2022-11-20T03:44:42;8;7;
64627;PMS5003;59036;50.960;0.314;2022-11-20T03:47:09;5;5;
64627;PMS5003;59036;50.960;0.314;2022-11-20T03:49:36;9;8;
64627;PMS5003;59036;50.960;0.314;2022-11-20T03:52:03;7;7;
64627;PMS5003;59036;50.960;0.314;2022-11-20T03:54:30;9;8;
64627;PMS5003;59036;50.960;0.314;2022-11-20T03:56:57;6;5;
64627;PMS5003;59036;50.960;0.314;2022-11-20T03:59:24;6;6;
64627;PMS5003;59036;50.960;0.314;2022-11-20T04:01:52;8;7;
64627;PMS5003;59036;50.960;0.314;2022-11-20T04:04:18;8;7;
64627;PMS5003;59036;50.960;0.314;2022-11-20T04:06:46;4;4;
64627;PMS5003;59036;50.960;0.314;2022-11-20T04:09:13;4;4;
64627;PMS5003;59036;50.960;0.314;2022-11-20T04:11:40;6;5;
64627;PMS5003;59036;50.960;0.314;2022-11-20T04:14:11;7;6;
64627;PMS5003;59036;50.960;0.314;2022-11-20T04:16:39;5;5;
64627;PMS5003;59036;50.960;0.314;2022-11-20T04:19:09;7;5;
64627;PMS5003;59036;50.960;0.314;2022-11-20T04:21:38;5;5;
64627;PMS5003;59036;50.960;0.314;2022-11-20T04:24:05;3;3;
64627;PMS5003;59036;50.960;0.314;2022-11-20T04:26:33;4;4;
64627;PMS5003;59036;50.960;0.314;2022-11-20T04:29:01;5;5;
64627;PMS5003;59036;50.960;0.314;2022-11-20T04:31:29;4;4;
64627;PMS5003;59036;50.960;0.314;2022-11-20T04:33:58;5;4;
64627;PMS5003;59036;50.960;0.314;2022-11-20T04:36:27;4;4;
64627;PMS5003;59036;50.960;0.314;2022-11-20T04:38:55;3;3;
64627;PMS5003;59036;50.960;0.314;2022-11-20T04:41:24;3;3;
64627;PMS5003;59036;50.960;0.314;2022-11-20T04:43:53;3;3;
64627;PMS5003;59036;50.960;0.314;2022-11-20T04:46:21;3;3;
64627;PMS5003;59036;50.960;0.314;2022-11-20T04:48:48;4;3;
64627;PMS5003;59036;50.960;0.314;2022-11-20T04:51:16;5;3;
64627;PMS5003;59036;50.960;0.314;2022-11-20T04:53:43;3;2;
64627;PMS5003;59036;50.960;0.314;2022-11-20T04:56:11;3;3;
64627;PMS5003;59036;50.960;0.314;2022-11-20T04:58:39;3;3;
64627;PMS5003;59036;50.960;0.314;2022-11-20T05:01:07;4;4;
64627;PMS5003;59036;50.960;0.314;2022-11-20T05:03:36;2;2;
64627;PMS5003;59036;50.960;0.314;2022-11-20T05:06:04;2;2;
64627;PMS5003;59036;50.960;0.314;2022-11-20T05:08:33;4;3;
64627;PMS5003;59036;50.960;0.314;2022-11-20T05:11:01;2;2;
64627;PMS5003;59036;50.960;0.314;2022-11-20T05:13:29;2;2;
64627;PMS5003;59036;50.960;0.314;2022-11-20T05:16:00;2;2;
64627;PMS5003;59036;50.960;0.314;2022-11-20T05:18:28;2;2;
64627;PMS5003;59036;50.960;0.314;2022-11-20T05:20:55;1;1;
64627;PMS5003;59036;50.960;0.314;2022-11-20T05:23:22;2;2;
64627;PMS5003;59036;50.960;0.314;2022-11-20T05:25:51;2;2;
64627;PMS5003;59036;50.960;0.314;2022-11-20T05:28:19;2;2;
64627;PMS5003;59036;50.960;0.314;2022-11-20T05:30:47;2;2;
64627;PMS5003;59036;50.960;0.314;2022-11-20T05:33:14;2;2;
64627;PMS5003;59036;50.960;0.314;2022-11-20T05:35:42;2;2;
64627;PMS5003;59036;50.960;0.314;2022-11-20T05:38:09;2;1;
64627;PMS5003;59036;50.960;0.314;2022-11-20T05:40:36;3;3;
64627;PMS5003;59036;50.960;0.314;2022-11-20T05:43:04;3;2;
64627;PMS5003;59036;50.960;0.314;2022-11-20T05:45:31;3;2;
64627;PMS5003;59036;50.960;0.314;2022-11-20T05:47:58;2;2;
64627;PMS5003;59036;50.960;0.314;2022-11-20T05:50:26;2;2;
64627;PMS5003;59036;50.960;0.314;2022-11-20T05:52:53;2;2;
64627;PMS5003;59036;50.960;0.314;2022-11-20T05:55:20;4;4;
64627;PMS5003;59036;50.960;0.314;2022-11-20T05:57:48;4;3;
64627;PMS5003;59036;50.960;0.314;2022-11-20T06:00:16;3;3;
64627;PMS5003;59036;50.960;0.314;2022-11-20T06:02:44;4;4;
64627;PMS5003;59036;50.960;0.314;2022-11-20T06:05:12;3;3;
64627;PMS5003;59036;50.960;0.314;2022-11-20T06:07:39;6;5;
64627;PMS5003;59036;50.960;0.314;2022-11-20T06:10:06;4;4;
64627;PMS5003;59036;50.960;0.314;2022-11-20T06:12:34;3;3;
64627;PMS5003;59036;50.960;0.314;2022-11-20T06:15:01;2;2;
64627;PMS5003;59036;50.960;0.314;2022-11-20T06:17:28;4;3;
64627;PMS5003;59036;50.960;0.314;2022-11-20T06:19:56;6;6;
64627;PMS5003;59036;50.960;0.314;2022-11-20T06:22:22;4;3;
64627;PMS5003;59036;50.960;0.314;2022-11-20T06:24:49;4;4;
64627;PMS5003;59036;50.960;0.314;2022-11-20T06:27:17;5;5;
64627;PMS5003;59036;50.960;0.314;2022-11-20T06:29:44;4;4;
64627;PMS5003;59036;50.960;0.314;2022-11-20T06:32:11;6;5;
64627;PMS5003;59036;50.960;0.314;2022-11-20T06:34:38;4;4;
64627;PMS5003;59036;50.960;0.314;2022-11-20T06:37:05;5;5;
64627;PMS5003;59036;50.960;0.314;2022-11-20T06:39:32;3;3;
64627;PMS5003;59036;50.960;0.314;2022-11-20T06:41:59;5;5;
64627;PMS5003;59036;50.960;0.314;2022-11-20T06:44:27;5;5;
64627;PMS5003;59036;50.960;0.314;2022-11-20T06:46:54;5;5;
64627;PMS5003;59036;50.960;0.314;2022-11-20T06:49:21;5;5;
64627;PMS5003;59036;50.960;0.314;2022-11-20T06:51:48;5;5;
64627;PMS5003;59036;50.960;0.314;2022-11-20T06:54:15;5;4;
64627;PMS5003;59036;50.960;0.314;2022-11-20T06:56:43;6;6;
64627;PMS5003;59036;50.960;0.314;2022-11-20T06:59:13;18;13;
64627;PMS5003;59036;50.960;0.314;2022-11-20T07:01:41;21;13;
64627;PMS5003;59036;50.960;0.314;2022-11-20T07:04:08;14;11;
64627;PMS5003;59036;50.960;0.314;2022-11-20T07:06:35;10;8;
64627;PMS5003;59036;50.960;0.314;2022-11-20T07:09:03;21;13;
64627;PMS5003;59036;50.960;0.314;2022-11-20T07:11:30;3;3;
64627;PMS5003;59036;50.960;0.314;2022-11-20T07:13:57;10;7;
64627;PMS5003;59036;50.960;0.314;2022-11-20T07:16:23;22;13;
64627;PMS5003;59036;50.960;0.314;2022-11-20T07:18:51;6;4;
64627;PMS5003;59036;50.960;0.314;2022-11-20T07:21:18;5;4;
64627;PMS5003;59036;50.960;0.314;2022-11-20T07:23:45;5;4;
64627;PMS5003;59036;50.960;0.314;2022-11-20T07:26:13;0;0;
64627;PMS5003;59036;50.960;0.314;2022-11-20T07:28:43;3;1;
64627;PMS5003;59036;50.960;0.314;2022-11-20T07:31:11;14;8;
64627;PMS5003;59036;50.960;0.314;2022-11-20T07:33:38;13;9;
64627;PMS5003;59036;50.960;0.314;2022-11-20T07:36:06;17;13;
64627;PMS5003;59036;50.960;0.314;2022-11-20T07:38:33;4;4;
64627;PMS5003;59036;50.960;0.314;2022-11-20T07:41:01;16;8;
64627;PMS5003;59036;50.960;0.314;2022-11-20T07:43:28;10;5;
64627;PMS5003;59036;50.960;0.314;2022-11-20T07:45:55;17;11;
64627;PMS5003;59036;50.960;0.314;2022-11-20T07:48:23;13;8;
64627;PMS5003;59036;50.960;0.314;2022-11-20T07:50:52;10;6;
64627;PMS5003;59036;50.960;0.314;2022-11-20T07:53:20;24;12;
64627;PMS5003;59036;50.960;0.314;2022-11-20T07:55:52;11;6;
64627;PMS5003;59036;50.960;0.314;2022-11-20T07:58:25;5;5;
64627;PMS5003;59036;50.960;0.314;2022-11-20T08:00:54;5;5;
64627;PMS5003;59036;50.960;0.314;2022-11-20T08:03:21;6;6;
64627;PMS5003;59036;50.960;0.314;2022-11-20T08:05:48;7;6;
64627;PMS5003;59036;50.960;0.314;2022-11-20T08:08:16;14;12;
64627;PMS5003;59036;50.960;0.314;2022-11-20T08:10:43;8;6;
64627;PMS5003;59036;50.960;0.314;2022-11-20T08:13:09;5;5;
64627;PMS5003;59036;50.960;0.314;2022-11-20T08:15:37;7;6;
64627;PMS5003;59036;50.960;0.314;2022-11-20T08:18:05;12;11;
64627;PMS5003;59036;50.960;0.314;2022-11-20T08:20:34;6;6;
64627;PMS5003;59036;50.960;0.314;2022-11-20T08:23:03;6;5;
64627;PMS5003;59036;50.960;0.314;2022-11-20T08:25:32;3;3;
64627;PMS5003;59036;50.960;0.314;2022-11-20T08:28:01;5;5;
64627;PMS5003;59036;50.960;0.314;2022-11-20T08:30:32;4;3;
64627;PMS5003;59036;50.960;0.314;2022-11-20T08:33:00;2;2;
64627;PMS5003;59036;50.960;0.314;2022-11-20T08:35:32;2;2;
64627;PMS5003;59036;50.960;0.314;2022-11-20T08:37:59;3;3;
64627;PMS5003;59036;50.960;0.314;2022-11-20T08:40:26;3;2;
64627;PMS5003;59036;50.960;0.314;2022-11-20T08:42:54;2;1;
64627;PMS5003;59036;50.960;0.314;2022-11-20T08:45:21;2;1;
64627;PMS5003;59036;50.960;0.314;2022-11-20T08:47:48;0;0;
64627;PMS5003;59036;50.960;0.314;2022-11-20T08:50:15;2;2;
64627;PMS5003;59036;50.960;0.314;2022-11-20T08:52:44;1;1;
64627;PMS5003;59036;50.960;0.314;2022-11-20T08:55:11;1;1;
64627;PMS5003;59036;50.960;0.314;2022-11-20T08:57:38;0;0;
64627;PMS5003;59036;50.960;0.314;2022-11-20T09:00:06;1;1;
64627;PMS5003;59036;50.960;0.314;2022-11-20T09:02:34;1;1;
64627;PMS5003;59036;50.960;0.314;2022-11-20T09:05:01;0;0;
64627;PMS5003;59036;50.960;0.314;2022-11-20T09:07:28;0;0;
64627;PMS5003;59036;50.960;0.314;2022-11-20T09:09:56;0;0;
64627;PMS5003;59036;50.960;0.314;2022-11-20T09:12:23;1;1;
64627;PMS5003;59036;50.960;0.314;2022-11-20T09:14:50;0;0;
64627;PMS5003;59036;50.960;0.314;2022-11-20T09:17:17;0;0;
64627;PMS5003;59036;50.960;0.314;2022-11-20T09:19:44;1;0;
64627;PMS5003;59036;50.960;0.314;2022-11-20T09:22:11;0;0;
64627;PMS5003;59036;50.960;0.314;2022-11-20T09:24:38;0;0;
64627;PMS5003;59036;50.960;0.314;2022-11-20T09:27:06;2;2;
64627;PMS5003;59036;50.960;0.314;2022-11-20T09:29:33;1;1;
64627;PMS5003;59036;50.960;0.314;2022-11-20T09:32:01;2;2;
64627;PMS5003;59036;50.960;0.314;2022-11-20T09:34:30;2;2;
64627;PMS5003;59036;50.960;0.314;2022-11-20T09:36:57;3;3;
64627;PMS5003;59036;50.960;0.314;2022-11-20T09:39:24;3;2;
64627;PMS5003;59036;50.960;0.314;2022-11-20T09:41:56;3;3;
64627;PMS5003;59036;50.960;0.314;2022-11-20T09:44:40;2;2;
64627;PMS5003;59036;50.960;0.314;2022-11-20T09:47:19;7;7;
64627;PMS5003;59036;50.960;0.314;2022-11-20T09:49:59;3;3;
64627;PMS5003;59036;50.960;0.314;2022-11-20T09:52:44;4;3;
64627;PMS5003;59036;50.960;0.314;2022-11-20T09:55:21;4;4;
64627;PMS5003;59036;50.960;0.314;2022-11-20T09:57:49;3;3;
64627;PMS5003;59036;50.960;0.314;2022-11-20T10:00:18;4;3;
64627;PMS5003;59036;50.960;0.314;2022-11-20T10:02:47;4;4;
64627;PMS5003;59036;50.960;0.314;2022-11-20T10:05:19;7;5;
64627;PMS5003;59036;50.960;0.314;2022-11-20T10:07:52;4;4;
64627;PMS5003;59036;50.960;0.314;2022-11-20T10:10:30;5;3;
64627;PMS5003;59036;50.960;0.314;2022-11-20T10:13:11;4;3;
64627;PMS5003;59036;50.960;0.314;2022-11-20T10:15:52;3;3;
64627;PMS5003;59036;50.960;0.314;2022-11-20T10:18:32;4;4;
64627;PMS5003;59036;50.960;0.314;2022-11-20T10:21:09;4;4;
64627;PMS5003;59036;50.960;0.314;2022-11-20T10:23:49;4;4;
64627;PMS5003;59036;50.960;0.314;2022-11-20T10:26:30;3;2;
64627;PMS5003;59036;50.960;0.314;2022-11-20T10:29:09;3;3;
64627;PMS5003;59036;50.960;0.314;2022-11-20T10:31:40;2;2;
64627;PMS5003;59036;50.960;0.314;2022-11-20T10:34:12;4;3;
64627;PMS5003;59036;50.960;0.314;2022-11-20T10:36:47;2;2;
64627;PMS5003;59036;50.960;0.314;2022-11-20T10:39:21;5;5;
64627;PMS5003;59036;50.960;0.314;2022-11-20T10:41:55;2;2;
64627;PMS5003;59036;50.960;0.314;2022-11-20T10:44:26;4;3;
64627;PMS5003;59036;50.960;0.314;2022-11-20T10:46:54;5;3;
64627;PMS5003;59036;50.960;0.314;2022-11-20T10:49:22;6;5;
64627;PMS5003;59036;50.960;0.314;2022-11-20T10:51:53;5;4;
64627;PMS5003;59036;50.960;0.314;2022-11-20T10:54:31;5;5;
64627;PMS5003;59036;50.960;0.314;2022-11-20T10:57:07;5;4;
64627;PMS5003;59036;50.960;0.314;2022-11-20T10:59:46;11;11;
64627;PMS5003;59036;50.960;0.314;2022-11-20T11:02:31;27;25;
64627;PMS5003;59036;50.960;0.314;2022-11-20T11:05:04;18;18;
64627;PMS5003;59036;50.960;0.314;2022-11-20T11:07:42;13;13;
64627;PMS5003;59036;50.960;0.314;2022-11-20T11:10:15;9;8;
64627;PMS5003;59036;50.960;0.314;2022-11-20T11:12:45;15;15;
64627;PMS5003;59036;50.960;0.314;2022-11-20T11:15:14;9;8;
64627;PMS5003;59036;50.960;0.314;2022-11-20T11:17:52;4;4;
64627;PMS5003;59036;50.960;0.314;2022-11-20T11:20:20;2;2;
64627;PMS5003;59036;50.960;0.314;2022-11-20T11:22:50;4;3;
64627;PMS5003;59036;50.960;0.314;2022-11-20T11:25:19;18;17;
64627;PMS5003;59036;50.960;0.314;2022-11-20T11:27:49;15;13;
64627;PMS5003;59036;50.960;0.314;2022-11-20T11:30:18;14;12;
64627;PMS5003;59036;50.960;0.314;2022-11-20T11:32:46;38;33;
64627;PMS5003;59036;50.960;0.314;2022-11-20T11:35:29;42;38;
64627;PMS5003;59036;50.960;0.314;2022-11-20T11:38:02;8;7;
64627;PMS5003;59036;50.960;0.314;2022-11-20T11:40:31;6;5;
64627;PMS5003;59036;50.960;0.314;2022-11-20T11:43:01;9;8;
64627;PMS5003;59036;50.960;0.314;2022-11-20T11:45:31;8;6;
64627;PMS5003;59036;50.960;0.314;2022-11-20T11:48:00;7;6;
64627;PMS5003;59036;50.960;0.314;2022-11-20T11:50:29;32;27;
64627;PMS5003;59036;50.960;0.314;2022-11-20T11:52:59;22;20;
64627;PMS5003;59036;50.960;0.314;2022-11-20T11:55:40;27;24;
64627;PMS5003;59036;50.960;0.314;2022-11-20T11:58:14;37;33;
64627;PMS5003;59036;50.960;0.314;2022-11-20T12:00:49;22;18;
64627;PMS5003;59036;50.960;0.314;2022-11-20T12:03:22;20;17;
64627;PMS5003;59036;50.960;0.314;2022-11-20T12:05:55;8;6;
64627;PMS5003;59036;50.960;0.314;2022-11-20T12:08:27;14;13;
64627;PMS5003;59036;50.960;0.314;2022-11-20T12:11:00;15;14;
64627;PMS5003;59036;50.960;0.314;2022-11-20T12:13:36;19;16;
64627;PMS5003;59036;50.960;0.314;2022-11-20T12:16:11;8;7;
64627;PMS5003;59036;50.960;0.314;2022-11-20T12:18:40;21;15;
64627;PMS5003;59036;50.960;0.314;2022-11-20T12:21:12;14;14;
64627;PMS5003;59036;50.960;0.314;2022-11-20T12:23:51;15;15;
64627;PMS5003;59036;50.960;0.314;2022-11-20T12:26:35;12;10;
64627;PMS5003;59036;50.960;0.314;2022-11-20T12:29:13;7;7;
64627;PMS5003;59036;50.960;0.314;2022-11-20T12:31:58;9;7;
64627;PMS5003;59036;50.960;0.314;2022-11-20T12:34:54;19;17;
64627;PMS5003;59036;50.960;0.314;2022-11-20T12:37:30;29;28;
64627;PMS5003;59036;50.960;0.314;2022-11-20T12:40:12;12;8;
64627;PMS5003;59036;50.960;0.314;2022-11-20T12:42:51;7;7;
64627;PMS5003;59036;50.960;0.314;2022-11-20T12:45:37;10;10;
64627;PMS5003;59036;50.960;0.314;2022-11-20T12:48:19;7;6;
64627;PMS5003;59036;50.960;0.314;2022-11-20T12:51:03;18;14;
64627;PMS5003;59036;50.960;0.314;2022-11-20T12:53:44;25;22;
64627;PMS5003;59036;50.960;0.314;2022-11-20T12:56:24;15;14;
64627;PMS5003;59036;50.960;0.314;2022-11-20T12:59:02;17;14;
64627;PMS5003;59036;50.960;0.314;2022-11-20T13:01:48;18;17;
64627;PMS5003;59036;50.960;0.314;2022-11-20T13:04:24;6;5;
64627;PMS5003;59036;50.960;0.314;2022-11-20T13:07:06;8;7;
64627;PMS5003;59036;50.960;0.314;2022-11-20T13:09:37;7;7;
64627;PMS5003;59036;50.960;0.314;2022-11-20T13:12:10;12;8;
64627;PMS5003;59036;50.960;0.314;2022-11-20T13:14:52;5;5;
64627;PMS5003;59036;50.960;0.314;2022-11-20T13:17:28;7;6;
64627;PMS5003;59036;50.960;0.314;2022-11-20T13:20:05;4;3;
64627;PMS5003;59036;50.960;0.314;2022-11-20T13:22:42;3;2;
64627;PMS5003;59036;50.960;0.314;2022-11-20T13:25:21;7;6;
64627;PMS5003;59036;50.960;0.314;2022-11-20T13:27:54;9;7;
64627;PMS5003;59036;50.960;0.314;2022-11-20T13:30:24;8;7;
64627;PMS5003;59036;50.960;0.314;2022-11-20T13:32:53;9;8;
64627;PMS5003;59036;50.960;0.314;2022-11-20T13:35:24;6;5;
64627;PMS5003;59036;50.960;0.314;2022-11-20T13:38:01;5;5;
64627;PMS5003;59036;50.960;0.314;2022-11-20T13:40:30;6;6;
64627;PMS5003;59036;50.960;0.314;2022-11-20T13:43:04;4;4;
64627;PMS5003;59036;50.960;0.314;2022-11-20T13:45:37;8;8;
64627;PMS5003;59036;50.960;0.314;2022-11-20T13:48:04;5;5;
64627;PMS5003;59036;50.960;0.314;2022-11-20T13:50:49;5;4;
64627;PMS5003;59036;50.960;0.314;2022-11-20T13:53:30;5;5;
64627;PMS5003;59036;50.960;0.314;2022-11-20T13:56:17;5;5;
64627;PMS5003;59036;50.960;0.314;2022-11-20T13:58:54;6;4;
64627;PMS5003;59036;50.960;0.314;2022-11-20T14:01:31;4;4;
64627;PMS5003;59036;50.960;0.314;2022-11-20T14:03:59;5;5;
64627;PMS5003;59036;50.960;0.314;2022-11-20T14:06:33;6;5;
64627;PMS5003;59036;50.960;0.314;2022-11-20T14:09:09;5;5;
64627;PMS5003;59036;50.960;0.314;2022-11-20T14:11:45;6;5;
64627;PMS5003;59036;50.960;0.314;2022-11-20T14:14:14;3;2;
64627;PMS5003;59036;50.960;0.314;2022-11-20T14:16:43;3;3;
64627;PMS5003;59036;50.960;0.314;2022-11-20T14:19:28;4;3;
64627;PMS5003;59036;50.960;0.314;2022-11-20T14:22:29;4;3;
64627;PMS5003;59036;50.960;0.314;2022-11-20T14:25:05;4;3;
64627;PMS5003;59036;50.960;0.314;2022-11-20T14:27:44;8;6;
64627;PMS5003;59036;50.960;0.314;2022-11-20T14:30:18;4;2;
64627;PMS5003;59036;50.960;0.314;2022-11-20T14:32:47;3;3;
64627;PMS5003;59036;50.960;0.314;2022-11-20T14:35:17;4;4;
64627;PMS5003;59036;50.960;0.314;2022-11-20T14:37:47;6;5;
64627;PMS5003;59036;50.960;0.314;2022-11-20T14:40:26;7;6;
64627;PMS5003;59036;50.960;0.314;2022-11-20T14:42:55;6;6;
64627;PMS5003;59036;50.960;0.314;2022-11-20T14:45:23;8;8;
64627;PMS5003;59036;50.960;0.314;2022-11-20T14:47:51;16;14;
64627;PMS5003;59036;50.960;0.314;2022-11-20T14:50:22;11;10;
64627;PMS5003;59036;50.960;0.314;2022-11-20T14:52:50;14;12;
64627;PMS5003;59036;50.960;0.314;2022-11-20T14:55:27;8;8;
64627;PMS5003;59036;50.960;0.314;2022-11-20T14:57:56;8;7;
64627;PMS5003;59036;50.960;0.314;2022-11-20T15:00:25;7;6;
64627;PMS5003;59036;50.960;0.314;2022-11-20T15:02:53;8;8;
64627;PMS5003;59036;50.960;0.314;2022-11-20T15:05:21;10;9;
64627;PMS5003;59036;50.960;0.314;2022-11-20T15:07:51;8;7;
64627;PMS5003;59036;50.960;0.314;2022-11-20T15:10:30;11;10;
64627;PMS5003;59036;50.960;0.314;2022-11-20T15:12:59;16;15;
64627;PMS5003;59036;50.960;0.314;2022-11-20T15:15:30;54;54;
64627;PMS5003;59036;50.960;0.314;2022-11-20T15:17:59;10;10;
64627;PMS5003;59036;50.960;0.314;2022-11-20T15:20:28;17;17;
64627;PMS5003;59036;50.960;0.314;2022-11-20T15:22:58;68;63;
64627;PMS5003;59036;50.960;0.314;2022-11-20T15:25:26;95;93;
64627;PMS5003;59036;50.960;0.314;2022-11-20T15:27:53;31;31;
64627;PMS5003;59036;50.960;0.314;2022-11-20T15:30:22;47;45;
64627;PMS5003;59036;50.960;0.314;2022-11-20T15:32:50;32;29;
64627;PMS5003;59036;50.960;0.314;2022-11-20T15:35:17;58;57;
64627;PMS5003;59036;50.960;0.314;2022-11-20T15:37:45;21;20;
64627;PMS5003;59036;50.960;0.314;2022-11-20T15:40:12;25;24;
64627;PMS5003;59036;50.960;0.314;2022-11-20T15:42:39;41;40;
64627;PMS5003;59036;50.960;0.314;2022-11-20T15:45:06;30;30;
64627;PMS5003;59036;50.960;0.314;2022-11-20T15:47:34;25;25;
64627;PMS5003;59036;50.960;0.314;2022-11-20T15:50:02;14;13;
64627;PMS5003;59036;50.960;0.314;2022-11-20T15:52:29;9;7;
64627;PMS5003;59036;50.960;0.314;2022-11-20T15:54:57;19;17;
64627;PMS5003;59036;50.960;0.314;2022-11-20T15:57:24;66;62;
64627;PMS5003;59036;50.960;0.314;2022-11-20T15:59:51;74;72;
64627;PMS5003;59036;50.960;0.314;2022-11-20T16:02:19;27;25;
64627;PMS5003;59036;50.960;0.314;2022-11-20T16:04:46;73;66;
64627;PMS5003;59036;50.960;0.314;2022-11-20T16:07:13;109;96;
64627;PMS5003;59036;50.960;0.314;2022-11-20T16:09:40;60;57;
64627;PMS5003;59036;50.960;0.314;2022-11-20T16:12:08;47;46;
64627;PMS5003;59036;50.960;0.314;2022-11-20T16:14:36;37;33;
64627;PMS5003;59036;50.960;0.314;2022-11-20T16:17:03;20;17;
64627;PMS5003;59036;50.960;0.314;2022-11-20T16:19:30;22;21;
64627;PMS5003;59036;50.960;0.314;2022-11-20T16:21:57;9;9;
64627;PMS5003;59036;50.960;0.314;2022-11-20T16:24:24;17;17;
64627;PMS5003;59036;50.960;0.314;2022-11-20T16:26:52;10;9;
64627;PMS5003;59036;50.960;0.314;2022-11-20T16:29:20;14;13;
64627;PMS5003;59036;50.960;0.314;2022-11-20T16:31:47;13;13;
64627;PMS5003;59036;50.960;0.314;2022-11-20T16:34:15;12;12;
64627;PMS5003;59036;50.960;0.314;2022-11-20T16:36:43;10;9;
64627;PMS5003;59036;50.960;0.314;2022-11-20T16:39:11;9;8;
64627;PMS5003;59036;50.960;0.314;2022-11-20T16:41:38;10;9;
64627;PMS5003;59036;50.960;0.314;2022-11-20T16:44:06;12;11;
64627;PMS5003;59036;50.960;0.314;2022-11-20T16:46:34;9;9;
64627;PMS5003;59036;50.960;0.314;2022-11-20T16:49:02;11;10;
64627;PMS5003;59036;50.960;0.314;2022-11-20T16:51:31;12;12;
64627;PMS5003;59036;50.960;0.314;2022-11-20T16:54:03;12;11;
64627;PMS5003;59036;50.960;0.314;2022-11-20T16:56:32;11;10;
64627;PMS5003;59036;50.960;0.314;2022-11-20T16:58:59;13;12;
64627;PMS5003;59036;50.960;0.314;2022-11-20T17:01:27;11;10;
64627;PMS5003;59036;50.960;0.314;2022-11-20T17:03:55;11;11;